In Rescue
 
Open Full Screen Window  High Contrast Mode
Wind Gusting 18 knots
11
May 19, 2019 12:55 PM CDT
Weather Information
Wind Direction
  050 °
Wind Speed
  11 kt (13 mph)
Wind Gust
  18 kt (21 mph)
Altimeter
29.95 in
Visibility
10 SM
Temperature
07° C
45° F
Dewpoint
-06° C
21° F
Humidity
39%
1hr Rain Fall
00.00 in.
24hr Rain Fall
00.00 in.
Sky Condition
Clear
VFR

METAR KCQM 191755Z AUTO 05011G18KT 10SM CLR 07/M06 A2995 RMK AO2

FAA Disclaimer: The data displayed is for advisory purposes only and is not to be used for flight planning or operations.